sensor_id;sensor_type;location;lat;lon;timestamp;P1;durP1;ratioP1;P2;durP2;ratioP2
18772;SDS011;9515;50.810;4.418;2023-01-15T09:15:14;10.50;;;1.30;;
18772;SDS011;9515;50.810;4.418;2023-01-15T09:17:40;4.87;;;1.10;;
18772;SDS011;9515;50.810;4.418;2023-01-15T09:20:07;5.63;;;0.93;;
18772;SDS011;9515;50.810;4.418;2023-01-15T09:22:35;4.80;;;1.00;;
18772;SDS011;9515;50.810;4.418;2023-01-15T09:25:00;7.40;;;1.57;;
18772;SDS011;9515;50.810;4.418;2023-01-15T09:27:26;8.07;;;1.20;;
18772;SDS011;9515;50.810;4.418;2023-01-15T09:29:53;4.03;;;1.00;;
18772;SDS011;9515;50.810;4.418;2023-01-15T09:32:19;4.20;;;0.97;;
18772;SDS011;9515;50.810;4.418;2023-01-15T09:34:44;4.40;;;1.20;;
18772;SDS011;9515;50.810;4.418;2023-01-15T09:37:10;6.03;;;1.13;;
18772;SDS011;9515;50.810;4.418;2023-01-15T09:39:36;7.60;;;0.97;;
18772;SDS011;9515;50.810;4.418;2023-01-15T09:45:17;4.60;;;1.20;;
18772;SDS011;9515;50.810;4.418;2023-01-15T09:47:33;9.07;;;1.07;;
18772;SDS011;9515;50.810;4.418;2023-01-15T09:53:00;4.13;;;0.93;;
18772;SDS011;9515;50.810;4.418;2023-01-15T09:55:49;4.20;;;0.73;;
18772;SDS011;9515;50.810;4.418;2023-01-15T09:58:19;8.70;;;1.10;;
18772;SDS011;9515;50.810;4.418;2023-01-15T10:00:48;5.97;;;1.10;;
18772;SDS011;9515;50.810;4.418;2023-01-15T10:05:50;3.73;;;1.30;;
18772;SDS011;9515;50.810;4.418;2023-01-15T10:08:23;3.13;;;0.80;;
18772;SDS011;9515;50.810;4.418;2023-01-15T10:10:58;5.60;;;0.87;;
18772;SDS011;9515;50.810;4.418;2023-01-15T10:14:09;4.20;;;1.27;;
18772;SDS011;9515;50.810;4.418;2023-01-15T10:16:39;6.63;;;1.10;;
18772;SDS011;9515;50.810;4.418;2023-01-15T10:19:07;4.07;;;1.23;;
18772;SDS011;9515;50.810;4.418;2023-01-15T10:21:50;5.23;;;1.20;;
18772;SDS011;9515;50.810;4.418;2023-01-15T10:24:37;4.60;;;1.10;;
18772;SDS011;9515;50.810;4.418;2023-01-15T10:27:19;6.80;;;1.00;;
18772;SDS011;9515;50.810;4.418;2023-01-15T10:37:53;3.90;;;1.00;;
18772;SDS011;9515;50.810;4.418;2023-01-15T10:40:44;3.87;;;1.13;;
18772;SDS011;9515;50.810;4.418;2023-01-15T10:46:16;3.93;;;0.80;;
18772;SDS011;9515;50.810;4.418;2023-01-15T10:51:22;4.10;;;1.37;;
18772;SDS011;9515;50.810;4.418;2023-01-15T10:53:59;4.07;;;1.00;;
18772;SDS011;9515;50.810;4.418;2023-01-15T10:59:48;4.40;;;0.97;;
18772;SDS011;9515;50.810;4.418;2023-01-15T11:04:49;4.97;;;1.10;;
18772;SDS011;9515;50.810;4.418;2023-01-15T11:07:15;3.80;;;0.97;;
18772;SDS011;9515;50.810;4.418;2023-01-15T11:09:42;4.67;;;1.03;;
18772;SDS011;9515;50.810;4.418;2023-01-15T11:12:21;4.93;;;1.10;;
18772;SDS011;9515;50.810;4.418;2023-01-15T11:14:50;4.93;;;1.30;;
18772;SDS011;9515;50.810;4.418;2023-01-15T11:17:41;4.93;;;1.13;;
18772;SDS011;9515;50.810;4.418;2023-01-15T11:20:32;4.30;;;1.17;;
18772;SDS011;9515;50.810;4.418;2023-01-15T11:23:09;4.23;;;1.43;;
18772;SDS011;9515;50.810;4.418;2023-01-15T11:25:37;3.77;;;1.27;;
18772;SDS011;9515;50.810;4.418;2023-01-15T11:28:08;1.53;;;0.80;;
18772;SDS011;9515;50.810;4.418;2023-01-15T11:30:39;5.60;;;1.27;;
18772;SDS011;9515;50.810;4.418;2023-01-15T11:33:18;6.03;;;1.10;;
18772;SDS011;9515;50.810;4.418;2023-01-15T11:35:52;6.13;;;1.30;;
18772;SDS011;9515;50.810;4.418;2023-01-15T11:38:24;5.10;;;1.30;;
18772;SDS011;9515;50.810;4.418;2023-01-15T11:40:52;6.47;;;1.40;;
18772;SDS011;9515;50.810;4.418;2023-01-15T11:43:22;6.70;;;1.50;;
18772;SDS011;9515;50.810;4.418;2023-01-15T11:46:24;10.73;;;1.50;;
18772;SDS011;9515;50.810;4.418;2023-01-15T11:49:16;8.93;;;1.67;;
18772;SDS011;9515;50.810;4.418;2023-01-15T11:52:12;10.27;;;2.40;;
18772;SDS011;9515;50.810;4.418;2023-01-15T11:54:45;8.53;;;1.53;;
18772;SDS011;9515;50.810;4.418;2023-01-15T11:57:23;7.33;;;1.40;;
18772;SDS011;9515;50.810;4.418;2023-01-15T11:59:54;5.40;;;1.77;;
18772;SDS011;9515;50.810;4.418;2023-01-15T12:02:37;7.90;;;1.20;;
18772;SDS011;9515;50.810;4.418;2023-01-15T12:05:14;4.17;;;1.57;;
18772;SDS011;9515;50.810;4.418;2023-01-15T12:07:47;4.67;;;1.20;;
18772;SDS011;9515;50.810;4.418;2023-01-15T12:10:21;8.13;;;1.60;;
18772;SDS011;9515;50.810;4.418;2023-01-15T12:13:22;2.53;;;1.20;;
18772;SDS011;9515;50.810;4.418;2023-01-15T12:24:48;3.57;;;1.00;;
18772;SDS011;9515;50.810;4.418;2023-01-15T12:32:49;4.50;;;1.10;;
18772;SDS011;9515;50.810;4.418;2023-01-15T12:37:51;5.87;;;1.30;;
18772;SDS011;9515;50.810;4.418;2023-01-15T12:40:29;6.90;;;1.50;;
18772;SDS011;9515;50.810;4.418;2023-01-15T12:43:07;4.77;;;1.67;;
18772;SDS011;9515;50.810;4.418;2023-01-15T12:45:59;3.87;;;1.17;;
18772;SDS011;9515;50.810;4.418;2023-01-15T12:48:35;4.57;;;1.10;;
18772;SDS011;9515;50.810;4.418;2023-01-15T12:51:17;7.13;;;1.50;;
18772;SDS011;9515;50.810;4.418;2023-01-15T12:53:58;5.23;;;0.97;;
18772;SDS011;9515;50.810;4.418;2023-01-15T12:56:32;5.27;;;1.20;;
18772;SDS011;9515;50.810;4.418;2023-01-15T12:59:09;3.10;;;1.00;;
18772;SDS011;9515;50.810;4.418;2023-01-15T13:04:33;3.57;;;1.20;;
18772;SDS011;9515;50.810;4.418;2023-01-15T13:07:26;4.63;;;0.97;;
18772;SDS011;9515;50.810;4.418;2023-01-15T13:10:21;3.87;;;1.27;;
18772;SDS011;9515;50.810;4.418;2023-01-15T13:12:57;6.53;;;1.40;;
18772;SDS011;9515;50.810;4.418;2023-01-15T13:15:56;5.73;;;1.00;;
18772;SDS011;9515;50.810;4.418;2023-01-15T13:21:18;2.73;;;1.07;;
18772;SDS011;9515;50.810;4.418;2023-01-15T13:29:20;3.83;;;1.20;;
18772;SDS011;9515;50.810;4.418;2023-01-15T13:32:12;4.20;;;1.13;;
18772;SDS011;9515;50.810;4.418;2023-01-15T13:37:11;4.43;;;1.20;;
18772;SDS011;9515;50.810;4.418;2023-01-15T13:40:33;5.40;;;1.30;;
18772;SDS011;9515;50.810;4.418;2023-01-15T13:43:00;3.37;;;1.10;;
18772;SDS011;9515;50.810;4.418;2023-01-15T13:45:33;5.73;;;0.80;;
18772;SDS011;9515;50.810;4.418;2023-01-15T13:48:11;3.53;;;1.20;;
18772;SDS011;9515;50.810;4.418;2023-01-15T13:51:03;2.67;;;0.90;;
18772;SDS011;9515;50.810;4.418;2023-01-15T13:54:02;3.47;;;1.03;;
18772;SDS011;9515;50.810;4.418;2023-01-15T13:56:27;2.30;;;1.20;;
18772;SDS011;9515;50.810;4.418;2023-01-15T13:58:56;4.87;;;1.20;;
18772;SDS011;9515;50.810;4.418;2023-01-15T14:06:49;3.57;;;1.00;;
18772;SDS011;9515;50.810;4.418;2023-01-15T14:28:11;4.90;;;1.40;;
18772;SDS011;9515;50.810;4.418;2023-01-15T14:33:42;6.43;;;1.57;;
18772;SDS011;9515;50.810;4.418;2023-01-15T14:36:27;6.17;;;2.43;;
18772;SDS011;9515;50.810;4.418;2023-01-15T14:38:58;7.87;;;2.37;;
18772;SDS011;9515;50.810;4.418;2023-01-15T14:41:26;3.30;;;1.10;;
18772;SDS011;9515;50.810;4.418;2023-01-15T14:43:55;5.20;;;1.30;;
18772;SDS011;9515;50.810;4.418;2023-01-15T14:46:25;4.70;;;1.30;;
18772;SDS011;9515;50.810;4.418;2023-01-15T14:48:52;4.63;;;1.30;;
18772;SDS011;9515;50.810;4.418;2023-01-15T14:51:21;4.77;;;1.37;;
18772;SDS011;9515;50.810;4.418;2023-01-15T14:54:08;6.80;;;1.40;;
18772;SDS011;9515;50.810;4.418;2023-01-15T14:56:40;7.50;;;1.10;;
18772;SDS011;9515;50.810;4.418;2023-01-15T15:09:47;5.80;;;1.10;;
18772;SDS011;9515;50.810;4.418;2023-01-15T15:12:55;3.40;;;0.73;;
18772;SDS011;9515;50.810;4.418;2023-01-15T15:23:25;3.87;;;1.07;;
18772;SDS011;9515;50.810;4.418;2023-01-15T15:26:28;1.60;;;0.90;;
18772;SDS011;9515;50.810;4.418;2023-01-15T15:31:36;3.93;;;1.37;;
18772;SDS011;9515;50.810;4.418;2023-01-15T15:34:14;6.70;;;1.40;;
18772;SDS011;9515;50.810;4.418;2023-01-15T15:36:50;3.77;;;1.30;;
18772;SDS011;9515;50.810;4.418;2023-01-15T15:42:03;5.43;;;1.33;;
18772;SDS011;9515;50.810;4.418;2023-01-15T15:44:56;4.33;;;1.30;;
18772;SDS011;9515;50.810;4.418;2023-01-15T15:47:42;5.30;;;2.00;;
18772;SDS011;9515;50.810;4.418;2023-01-15T15:50:35;4.00;;;1.33;;
18772;SDS011;9515;50.810;4.418;2023-01-15T15:53:01;5.70;;;1.30;;
18772;SDS011;9515;50.810;4.418;2023-01-15T15:55:38;6.07;;;1.73;;
18772;SDS011;9515;50.810;4.418;2023-01-15T15:58:06;3.40;;;1.90;;
18772;SDS011;9515;50.810;4.418;2023-01-15T16:00:37;5.17;;;1.70;;
18772;SDS011;9515;50.810;4.418;2023-01-15T16:03:28;3.80;;;1.30;;
18772;SDS011;9515;50.810;4.418;2023-01-15T16:05:56;6.73;;;1.93;;
18772;SDS011;9515;50.810;4.418;2023-01-15T16:08:33;6.40;;;1.70;;
18772;SDS011;9515;50.810;4.418;2023-01-15T16:11:06;3.20;;;1.57;;
18772;SDS011;9515;50.810;4.418;2023-01-15T16:13:45;4.53;;;1.80;;
18772;SDS011;9515;50.810;4.418;2023-01-15T16:16:13;7.53;;;1.40;;
18772;SDS011;9515;50.810;4.418;2023-01-15T16:18:46;8.27;;;2.03;;
18772;SDS011;9515;50.810;4.418;2023-01-15T16:21:19;5.47;;;2.03;;
18772;SDS011;9515;50.810;4.418;2023-01-15T16:24:09;3.20;;;1.40;;
18772;SDS011;9515;50.810;4.418;2023-01-15T16:27:04;6.30;;;1.83;;
18772;SDS011;9515;50.810;4.418;2023-01-15T16:29:33;9.33;;;1.90;;
18772;SDS011;9515;50.810;4.418;2023-01-15T16:32:00;3.90;;;1.70;;
18772;SDS011;9515;50.810;4.418;2023-01-15T16:34:33;3.13;;;1.70;;
18772;SDS011;9515;50.810;4.418;2023-01-15T16:37:00;8.03;;;2.20;;
18772;SDS011;9515;50.810;4.418;2023-01-15T16:39:31;6.13;;;2.50;;
18772;SDS011;9515;50.810;4.418;2023-01-15T16:42:21;9.13;;;2.63;;
18772;SDS011;9515;50.810;4.418;2023-01-15T16:44:51;6.43;;;2.57;;
18772;SDS011;9515;50.810;4.418;2023-01-15T16:47:23;13.37;;;3.20;;
18772;SDS011;9515;50.810;4.418;2023-01-15T16:49:51;9.00;;;3.40;;
18772;SDS011;9515;50.810;4.418;2023-01-15T16:52:43;8.30;;;3.10;;
18772;SDS011;9515;50.810;4.418;2023-01-15T17:00:47;11.37;;;4.47;;
18772;SDS011;9515;50.810;4.418;2023-01-15T17:03:16;9.83;;;3.60;;
18772;SDS011;9515;50.810;4.418;2023-01-15T17:05:43;7.17;;;3.10;;
18772;SDS011;9515;50.810;4.418;2023-01-15T17:08:15;19.10;;;5.73;;
18772;SDS011;9515;50.810;4.418;2023-01-15T17:10:51;12.63;;;4.47;;
18772;SDS011;9515;50.810;4.418;2023-01-15T17:13:19;6.97;;;3.73;;
18772;SDS011;9515;50.810;4.418;2023-01-15T17:15:45;7.57;;;3.67;;
18772;SDS011;9515;50.810;4.418;2023-01-15T17:18:27;9.67;;;3.43;;
18772;SDS011;9515;50.810;4.418;2023-01-15T17:20:54;12.53;;;3.10;;
18772;SDS011;9515;50.810;4.418;2023-01-15T17:23:23;10.30;;;4.47;;
18772;SDS011;9515;50.810;4.418;2023-01-15T17:25:51;14.23;;;4.70;;
18772;SDS011;9515;50.810;4.418;2023-01-15T17:28:20;7.37;;;2.80;;
18772;SDS011;9515;50.810;4.418;2023-01-15T17:30:49;4.33;;;2.47;;
18772;SDS011;9515;50.810;4.418;2023-01-15T17:33:21;6.10;;;2.33;;
18772;SDS011;9515;50.810;4.418;2023-01-15T17:35:47;9.77;;;2.63;;
18772;SDS011;9515;50.810;4.418;2023-01-15T17:38:15;9.90;;;2.60;;
18772;SDS011;9515;50.810;4.418;2023-01-15T17:40:41;8.47;;;3.20;;
18772;SDS011;9515;50.810;4.418;2023-01-15T17:43:08;7.97;;;3.00;;
18772;SDS011;9515;50.810;4.418;2023-01-15T17:45:39;8.03;;;3.47;;
18772;SDS011;9515;50.810;4.418;2023-01-15T17:48:06;8.23;;;3.30;;
18772;SDS011;9515;50.810;4.418;2023-01-15T17:50:35;10.07;;;3.10;;
18772;SDS011;9515;50.810;4.418;2023-01-15T17:53:02;6.80;;;2.53;;
18772;SDS011;9515;50.810;4.418;2023-01-15T17:55:29;10.60;;;2.40;;
18772;SDS011;9515;50.810;4.418;2023-01-15T17:58:13;7.90;;;2.73;;
18772;SDS011;9515;50.810;4.418;2023-01-15T18:00:58;7.53;;;2.67;;
18772;SDS011;9515;50.810;4.418;2023-01-15T18:03:47;5.73;;;2.20;;
18772;SDS011;9515;50.810;4.418;2023-01-15T18:06:34;7.40;;;2.43;;
18772;SDS011;9515;50.810;4.418;2023-01-15T18:09:02;6.77;;;2.50;;
18772;SDS011;9515;50.810;4.418;2023-01-15T18:11:31;9.60;;;2.63;;
18772;SDS011;9515;50.810;4.418;2023-01-15T18:13:56;6.87;;;2.23;;
18772;SDS011;9515;50.810;4.418;2023-01-15T18:16:22;6.67;;;1.67;;
18772;SDS011;9515;50.810;4.418;2023-01-15T18:18:51;11.23;;;2.40;;
18772;SDS011;9515;50.810;4.418;2023-01-15T18:21:17;4.43;;;1.50;;
18772;SDS011;9515;50.810;4.418;2023-01-15T18:23:43;9.30;;;2.10;;
18772;SDS011;9515;50.810;4.418;2023-01-15T18:26:09;8.80;;;1.73;;
18772;SDS011;9515;50.810;4.418;2023-01-15T18:28:35;13.33;;;2.17;;
18772;SDS011;9515;50.810;4.418;2023-01-15T18:31:03;3.57;;;1.30;;
18772;SDS011;9515;50.810;4.418;2023-01-15T18:33:29;4.03;;;1.20;;
18772;SDS011;9515;50.810;4.418;2023-01-15T18:38:35;1.87;;;1.10;;
18772;SDS011;9515;50.810;4.418;2023-01-15T18:41:10;5.00;;;1.77;;
18772;SDS011;9515;50.810;4.418;2023-01-15T18:43:37;11.60;;;2.20;;
18772;SDS011;9515;50.810;4.418;2023-01-15T18:46:21;9.97;;;1.87;;
18772;SDS011;9515;50.810;4.418;2023-01-15T18:49:06;7.77;;;1.70;;
18772;SDS011;9515;50.810;4.418;2023-01-15T18:51:31;7.37;;;2.00;;
18772;SDS011;9515;50.810;4.418;2023-01-15T18:53:57;3.23;;;1.07;;
18772;SDS011;9515;50.810;4.418;2023-01-15T18:56:23;8.37;;;2.00;;
18772;SDS011;9515;50.810;4.418;2023-01-15T18:59:11;5.50;;;1.70;;
18772;SDS011;9515;50.810;4.418;2023-01-15T19:01:38;7.87;;;2.23;;
18772;SDS011;9515;50.810;4.418;2023-01-15T19:04:04;8.73;;;2.10;;
18772;SDS011;9515;50.810;4.418;2023-01-15T19:06:32;8.87;;;2.47;;
18772;SDS011;9515;50.810;4.418;2023-01-15T19:08:58;8.87;;;2.37;;
18772;SDS011;9515;50.810;4.418;2023-01-15T19:11:25;8.80;;;2.50;;
18772;SDS011;9515;50.810;4.418;2023-01-15T19:13:52;11.53;;;2.30;;
18772;SDS011;9515;50.810;4.418;2023-01-15T19:16:36;5.90;;;1.87;;
18772;SDS011;9515;50.810;4.418;2023-01-15T19:19:20;4.43;;;2.13;;
18772;SDS011;9515;50.810;4.418;2023-01-15T19:21:46;10.20;;;2.50;;
18772;SDS011;9515;50.810;4.418;2023-01-15T19:24:32;12.30;;;2.10;;
18772;SDS011;9515;50.810;4.418;2023-01-15T19:26:58;4.00;;;2.00;;
18772;SDS011;9515;50.810;4.418;2023-01-15T19:29:24;4.40;;;1.70;;
18772;SDS011;9515;50.810;4.418;2023-01-15T19:31:50;7.23;;;1.93;;
18772;SDS011;9515;50.810;4.418;2023-01-15T19:34:15;9.53;;;2.27;;
18772;SDS011;9515;50.810;4.418;2023-01-15T19:36:42;8.47;;;2.60;;
18772;SDS011;9515;50.810;4.418;2023-01-15T19:39:08;6.20;;;2.20;;
18772;SDS011;9515;50.810;4.418;2023-01-15T19:41:34;8.97;;;1.83;;
18772;SDS011;9515;50.810;4.418;2023-01-15T19:44:18;10.37;;;1.97;;
18772;SDS011;9515;50.810;4.418;2023-01-15T19:47:02;7.57;;;2.00;;
18772;SDS011;9515;50.810;4.418;2023-01-15T19:49:46;4.27;;;1.43;;
18772;SDS011;9515;50.810;4.418;2023-01-15T19:52:30;8.83;;;1.87;;
18772;SDS011;9515;50.810;4.418;2023-01-15T19:54:59;6.17;;;1.77;;
18772;SDS011;9515;50.810;4.418;2023-01-15T19:57:29;7.63;;;1.83;;
18772;SDS011;9515;50.810;4.418;2023-01-15T19:59:55;7.53;;;2.20;;
18772;SDS011;9515;50.810;4.418;2023-01-15T20:02:20;6.87;;;1.27;;
18772;SDS011;9515;50.810;4.418;2023-01-15T20:04:47;7.03;;;2.17;;
18772;SDS011;9515;50.810;4.418;2023-01-15T20:07:13;6.30;;;1.53;;
18772;SDS011;9515;50.810;4.418;2023-01-15T20:09:39;7.03;;;1.90;;
18772;SDS011;9515;50.810;4.418;2023-01-15T20:12:05;8.40;;;2.23;;
18772;SDS011;9515;50.810;4.418;2023-01-15T20:14:49;6.07;;;2.07;;
18772;SDS011;9515;50.810;4.418;2023-01-15T20:17:18;10.03;;;1.90;;
18772;SDS011;9515;50.810;4.418;2023-01-15T20:19:45;5.20;;;1.50;;
18772;SDS011;9515;50.810;4.418;2023-01-15T20:22:14;6.83;;;1.63;;
18772;SDS011;9515;50.810;4.418;2023-01-15T20:24:41;2.03;;;1.13;;
18772;SDS011;9515;50.810;4.418;2023-01-15T20:27:11;3.83;;;1.20;;
18772;SDS011;9515;50.810;4.418;2023-01-15T20:29:38;3.00;;;1.23;;
18772;SDS011;9515;50.810;4.418;2023-01-15T20:32:07;1.97;;;1.00;;
18772;SDS011;9515;50.810;4.418;2023-01-15T20:34:33;3.70;;;1.40;;
18772;SDS011;9515;50.810;4.418;2023-01-15T20:37:03;4.70;;;1.40;;
18772;SDS011;9515;50.810;4.418;2023-01-15T20:39:29;3.97;;;1.23;;
18772;SDS011;9515;50.810;4.418;2023-01-15T20:41:58;2.03;;;1.00;;
18772;SDS011;9515;50.810;4.418;2023-01-15T20:44:42;3.83;;;0.90;;
18772;SDS011;9515;50.810;4.418;2023-01-15T20:47:17;2.80;;;0.73;;
18772;SDS011;9515;50.810;4.418;2023-01-15T20:50:01;3.90;;;1.20;;
18772;SDS011;9515;50.810;4.418;2023-01-15T20:52:28;3.30;;;1.23;;
18772;SDS011;9515;50.810;4.418;2023-01-15T20:54:53;5.20;;;1.20;;
18772;SDS011;9515;50.810;4.418;2023-01-15T20:57:19;3.93;;;1.10;;
18772;SDS011;9515;50.810;4.418;2023-01-15T20:59:44;6.03;;;1.30;;
18772;SDS011;9515;50.810;4.418;2023-01-15T21:02:10;2.77;;;1.10;;
18772;SDS011;9515;50.810;4.418;2023-01-15T21:04:36;3.23;;;1.50;;
18772;SDS011;9515;50.810;4.418;2023-01-15T21:07:02;6.80;;;1.30;;
18772;SDS011;9515;50.810;4.418;2023-01-15T21:09:28;3.87;;;1.50;;
18772;SDS011;9515;50.810;4.418;2023-01-15T21:11:53;3.73;;;1.00;;
18772;SDS011;9515;50.810;4.418;2023-01-15T21:14:19;2.83;;;1.10;;
18772;SDS011;9515;50.810;4.418;2023-01-15T21:16:45;5.20;;;1.17;;
18772;SDS011;9515;50.810;4.418;2023-01-15T21:19:10;3.33;;;1.13;;
18772;SDS011;9515;50.810;4.418;2023-01-15T21:21:36;5.90;;;1.10;;
18772;SDS011;9515;50.810;4.418;2023-01-15T21:24:02;3.73;;;1.27;;
18772;SDS011;9515;50.810;4.418;2023-01-15T21:26:28;6.77;;;1.40;;
18772;SDS011;9515;50.810;4.418;2023-01-15T21:28:54;6.67;;;1.47;;
18772;SDS011;9515;50.810;4.418;2023-01-15T21:31:20;4.50;;;1.37;;
18772;SDS011;9515;50.810;4.418;2023-01-15T21:33:46;8.00;;;1.50;;
18772;SDS011;9515;50.810;4.418;2023-01-15T21:36:13;4.63;;;1.30;;
18772;SDS011;9515;50.810;4.418;2023-01-15T21:38:39;4.87;;;1.60;;
18772;SDS011;9515;50.810;4.418;2023-01-15T21:41:08;8.07;;;1.97;;
18772;SDS011;9515;50.810;4.418;2023-01-15T21:43:39;3.87;;;1.40;;
18772;SDS011;9515;50.810;4.418;2023-01-15T21:46:23;6.37;;;1.20;;
18772;SDS011;9515;50.810;4.418;2023-01-15T21:48:56;6.63;;;1.53;;
18772;SDS011;9515;50.810;4.418;2023-01-15T21:51:23;6.77;;;1.20;;
18772;SDS011;9515;50.810;4.418;2023-01-15T21:53:50;4.50;;;1.33;;
18772;SDS011;9515;50.810;4.418;2023-01-15T21:56:16;6.23;;;1.50;;
18772;SDS011;9515;50.810;4.418;2023-01-15T21:58:41;6.37;;;1.20;;
18772;SDS011;9515;50.810;4.418;2023-01-15T22:01:08;9.03;;;1.40;;
18772;SDS011;9515;50.810;4.418;2023-01-15T22:03:35;5.83;;;1.43;;
18772;SDS011;9515;50.810;4.418;2023-01-15T22:06:01;3.87;;;1.33;;
18772;SDS011;9515;50.810;4.418;2023-01-15T22:08:32;6.03;;;2.03;;
18772;SDS011;9515;50.810;4.418;2023-01-15T22:11:01;2.93;;;1.10;;
18772;SDS011;9515;50.810;4.418;2023-01-15T22:13:31;2.73;;;0.90;;
18772;SDS011;9515;50.810;4.418;2023-01-15T22:15:58;4.83;;;1.40;;
18772;SDS011;9515;50.810;4.418;2023-01-15T22:18:29;5.80;;;1.20;;
18772;SDS011;9515;50.810;4.418;2023-01-15T22:21:00;2.80;;;1.17;;
18772;SDS011;9515;50.810;4.418;2023-01-15T22:23:28;5.50;;;1.53;;
18772;SDS011;9515;50.810;4.418;2023-01-15T22:25:54;5.87;;;1.20;;
18772;SDS011;9515;50.810;4.418;2023-01-15T22:28:20;8.40;;;1.63;;
18772;SDS011;9515;50.810;4.418;2023-01-15T22:30:45;7.80;;;1.40;;
18772;SDS011;9515;50.810;4.418;2023-01-15T22:33:12;4.37;;;1.20;;
18772;SDS011;9515;50.810;4.418;2023-01-15T22:35:38;5.93;;;1.50;;
18772;SDS011;9515;50.810;4.418;2023-01-15T22:38:03;4.83;;;1.10;;
18772;SDS011;9515;50.810;4.418;2023-01-15T22:40:29;7.60;;;1.20;;
18772;SDS011;9515;50.810;4.418;2023-01-15T22:42:55;5.60;;;1.40;;
18772;SDS011;9515;50.810;4.418;2023-01-15T22:45:21;5.43;;;1.30;;
18772;SDS011;9515;50.810;4.418;2023-01-15T22:47:47;6.20;;;1.20;;
18772;SDS011;9515;50.810;4.418;2023-01-15T22:50:13;9.07;;;2.00;;
18772;SDS011;9515;50.810;4.418;2023-01-15T22:52:39;5.23;;;1.43;;
18772;SDS011;9515;50.810;4.418;2023-01-15T22:55:05;2.67;;;1.00;;
18772;SDS011;9515;50.810;4.418;2023-01-15T22:57:31;5.67;;;1.47;;
18772;SDS011;9515;50.810;4.418;2023-01-15T22:59:57;5.77;;;1.47;;
18772;SDS011;9515;50.810;4.418;2023-01-15T23:02:23;3.23;;;1.40;;
18772;SDS011;9515;50.810;4.418;2023-01-15T23:05:12;4.80;;;1.70;;
18772;SDS011;9515;50.810;4.418;2023-01-15T23:07:38;6.67;;;1.70;;
18772;SDS011;9515;50.810;4.418;2023-01-15T23:10:04;2.57;;;1.20;;
18772;SDS011;9515;50.810;4.418;2023-01-15T23:12:30;7.73;;;1.40;;
18772;SDS011;9515;50.810;4.418;2023-01-15T23:14:56;4.97;;;1.23;;
18772;SDS011;9515;50.810;4.418;2023-01-15T23:17:22;9.60;;;1.53;;
18772;SDS011;9515;50.810;4.418;2023-01-15T23:19:48;3.57;;;1.50;;
18772;SDS011;9515;50.810;4.418;2023-01-15T23:22:14;6.13;;;2.03;;
18772;SDS011;9515;50.810;4.418;2023-01-15T23:24:40;4.20;;;1.10;;
18772;SDS011;9515;50.810;4.418;2023-01-15T23:27:05;4.70;;;1.27;;
18772;SDS011;9515;50.810;4.418;2023-01-15T23:29:31;2.77;;;1.20;;
18772;SDS011;9515;50.810;4.418;2023-01-15T23:31:57;6.47;;;1.40;;
18772;SDS011;9515;50.810;4.418;2023-01-15T23:34:23;5.20;;;1.20;;
18772;SDS011;9515;50.810;4.418;2023-01-15T23:36:49;2.07;;;1.10;;
18772;SDS011;9515;50.810;4.418;2023-01-15T23:39:15;4.33;;;1.37;;
18772;SDS011;9515;50.810;4.418;2023-01-15T23:41:40;3.57;;;0.80;;
18772;SDS011;9515;50.810;4.418;2023-01-15T23:44:25;4.23;;;1.27;;
18772;SDS011;9515;50.810;4.418;2023-01-15T23:47:09;5.73;;;1.67;;
18772;SDS011;9515;50.810;4.418;2023-01-15T23:49:34;5.03;;;1.07;;
18772;SDS011;9515;50.810;4.418;2023-01-15T23:52:00;6.63;;;1.47;;
18772;SDS011;9515;50.810;4.418;2023-01-15T23:54:26;7.30;;;1.50;;
18772;SDS011;9515;50.810;4.418;2023-01-15T23:56:58;9.23;;;1.20;;
18772;SDS011;9515;50.810;4.418;2023-01-15T23:59:25;3.87;;;1.10;;
